Low Head, Tasmania

6:11 PM AEST on July 30, 2015 (GMT +1000)
Deviot | | Change Station
CLOSE
Current Station
Personal Weather Station
Location: Deviot, TASMANIA
Elevation: 56 ft
Nearby Weather Stations

Elev 56 ft 41.23 °S, 146.93 °E | Updated 8 seconds ago

Light Rain
Light Rain
50.2 °F
Feels Like 50.2 °F
N
12.1
Wind Variable Wind from NW
Gusts 15.9 mph

Today
High -- | Low -- °F
--% Chance of Precip.
Yesterday
High -- | Low -- °F
Precip. -- in
7:22 AM 5:16 PM
Waxing Gibbous, 98% visible
Pressure 29.62 in
Visibility 3.7 miles
Clouds Mostly Cloudy 1100 ft
Overcast 2200 ft
Overcast 2900 ft
Dew Point 44 °F
Humidity 79%
Rainfall 11.78 in
Snow Depth Not available.
UV 0 out of 12
Pollen Not available.
Air Quality Not available.
Flu Activity Not available.
SPECI YMLT 300804Z AUTO 34020KT 6000 -RA BKN011 OVC022 OVC029 08/06 Q1003

More Conditions Fewer Conditions

Pressure 29.62 in
Visibility 3.7 miles
Clouds Mostly Cloudy 1100 ft
Overcast 2200 ft
Overcast 2900 ft
Dew Point 44 °F
Humidity 79%
Rainfall 11.78 in
Snow Depth Not available.
UV 0 out of 12
Pollen Not available.
Air Quality Not available.
Flu Activity Not available.
SPECI YMLT 300804Z AUTO 34020KT 6000 -RA BKN011 OVC022 OVC029 08/06 Q1003

More Conditions Fewer Conditions

10-Day Weather Forecast

×

Almanac

Astronomy

Jul. 30, 2015 Rise Set
Actual Time
Civil Twilight
Nautical Twilight
Astronomical Twilight
Moon
Length of Visible Light
Length of Day
Tomorrow will be .
, % of the Moon is Illuminated

Today's Extremes

Country Highs Country Lows

Community

WunderPhotos

Upload Photos

1,842,315 photos uploaded!

WunderBlogs® & News

Nearby

Air Quality

  Air Quality AQ Index Pollutant
Not available.

Snow Depth

Station Depth Elevation

Earthquake Activity

City Distance Mag. Time & Date
Minimum magnitude displayed is 2.5.

Coastal Water Temperatures

Place Temperature

Stations

Nearby Weather Stations

Station Location Temp. Windchill Dew Point Humidity Wind Precip. Elev Updated Type